createdAt,value
2023-04-16T00:00:30.158Z,102340
2023-04-16T00:05:30.139Z,102350
2023-04-16T00:10:30.135Z,102360
2023-04-16T00:15:30.133Z,102360
2023-04-16T00:20:30.145Z,102360
2023-04-16T00:25:30.148Z,102360
2023-04-16T00:30:30.280Z,102350
2023-04-16T00:35:30.153Z,102360
2023-04-16T00:40:30.175Z,102350
2023-04-16T00:50:30.159Z,102350
2023-04-16T00:55:30.168Z,102350
2023-04-16T01:00:30.234Z,102360
2023-04-16T01:05:30.167Z,102360
2023-04-16T01:10:30.177Z,102360
2023-04-16T01:15:30.184Z,102360
2023-04-16T01:25:30.189Z,102360
2023-04-16T01:30:30.291Z,102360
2023-04-16T01:35:30.203Z,102360
2023-04-16T01:40:30.208Z,102360
2023-04-16T01:45:30.202Z,102350
2023-04-16T01:50:30.202Z,102360
2023-04-16T01:55:30.209Z,102350
2023-04-16T02:05:30.262Z,102360
2023-04-16T02:10:30.231Z,102360
2023-04-16T02:15:30.210Z,102360
2023-04-16T02:20:30.225Z,102360
2023-04-16T02:30:30.223Z,102360
2023-04-16T02:35:30.278Z,102350
2023-04-16T02:40:30.232Z,102350
2023-04-16T02:45:30.226Z,102360
2023-04-16T03:00:30.247Z,102370
2023-04-16T03:05:30.293Z,102370
2023-04-16T03:10:30.242Z,102370
2023-04-16T03:15:30.277Z,102370
2023-04-16T03:25:30.258Z,102380
2023-04-16T03:30:30.261Z,102380
2023-04-16T03:35:30.284Z,102380
2023-04-16T03:40:30.263Z,102380
2023-04-16T03:50:30.280Z,102390
2023-04-16T03:55:30.277Z,102400
2023-04-16T04:05:30.314Z,102410
2023-04-16T04:15:30.289Z,102400
2023-04-16T04:20:30.290Z,102410
2023-04-16T04:25:30.290Z,102410
2023-04-16T04:30:30.290Z,102410
2023-04-16T04:35:30.330Z,102410
2023-04-16T04:40:30.297Z,102420
2023-04-16T04:45:31.830Z,102420
2023-04-16T04:50:30.307Z,102430
2023-04-16T04:55:30.306Z,102430
2023-04-16T05:00:30.302Z,102430
2023-04-16T05:05:30.345Z,102440
2023-04-16T05:15:30.324Z,102450
2023-04-16T05:20:30.325Z,102440
2023-04-16T05:25:30.340Z,102450
2023-04-16T05:35:30.364Z,102460
2023-04-16T05:40:30.359Z,102460
2023-04-16T05:45:30.336Z,102470
2023-04-16T05:50:30.338Z,102470
2023-04-16T05:55:30.349Z,102470
2023-04-16T06:00:30.363Z,102470
2023-04-16T06:05:30.412Z,102480
2023-04-16T06:10:30.343Z,102480
2023-04-16T06:20:30.386Z,102490
2023-04-16T06:25:30.357Z,102500
2023-04-16T06:30:30.373Z,102490
2023-04-16T06:35:30.373Z,102500
2023-04-16T06:40:30.370Z,102510
2023-04-16T06:45:30.369Z,102510
2023-04-16T06:50:30.401Z,102510
2023-04-16T06:55:30.373Z,102520
2023-04-16T07:00:30.402Z,102520
2023-04-16T07:05:30.452Z,102530
2023-04-16T07:10:30.415Z,102530
2023-04-16T07:15:30.396Z,102530
2023-04-16T07:20:30.425Z,102530
2023-04-16T07:25:30.386Z,102540
2023-04-16T07:30:30.395Z,102540
2023-04-16T07:35:30.411Z,102550
2023-04-16T07:40:30.404Z,102550
2023-04-16T07:45:30.411Z,102550
2023-04-16T07:50:30.446Z,102560
2023-04-16T07:55:30.411Z,102570
2023-04-16T08:00:30.418Z,102570
2023-04-16T08:05:30.425Z,102580
2023-04-16T08:10:30.420Z,102580
2023-04-16T08:15:30.440Z,102580
2023-04-16T08:20:30.449Z,102590
2023-04-16T08:25:30.456Z,102590
2023-04-16T08:30:30.429Z,102600
2023-04-16T08:35:30.441Z,102600
2023-04-16T08:40:30.457Z,102600
2023-04-16T08:45:30.477Z,102610
2023-04-16T08:50:30.466Z,102610
2023-04-16T08:55:30.448Z,102610
2023-04-16T09:00:30.446Z,102620
2023-04-16T09:05:30.467Z,102620
2023-04-16T09:10:30.455Z,102620
2023-04-16T09:15:30.491Z,102620
2023-04-16T09:20:30.497Z,102620
2023-04-16T09:25:30.475Z,102620
2023-04-16T09:30:30.471Z,102610
2023-04-16T09:35:30.470Z,102620
2023-04-16T09:40:30.565Z,102620
2023-04-16T09:45:30.518Z,102610
2023-04-16T09:50:30.514Z,102620
2023-04-16T09:55:30.482Z,102620
2023-04-16T10:00:30.509Z,102620
2023-04-16T10:05:30.505Z,102620
2023-04-16T10:10:30.551Z,102620
2023-04-16T10:15:30.525Z,102630
2023-04-16T10:20:30.532Z,102630
2023-04-16T10:25:30.510Z,102630
2023-04-16T10:30:30.506Z,102630
2023-04-16T10:35:30.516Z,102630
2023-04-16T10:40:30.519Z,102630
2023-04-16T10:45:30.530Z,102630
2023-04-16T10:50:30.558Z,102620
2023-04-16T10:55:30.522Z,102630
2023-04-16T11:00:30.526Z,102630
2023-04-16T11:05:30.530Z,102630
2023-04-16T11:10:30.529Z,102630
2023-04-16T11:15:30.547Z,102630
2023-04-16T11:20:30.563Z,102630
2023-04-16T11:25:30.542Z,102630
2023-04-16T11:30:30.539Z,102640
2023-04-16T11:35:30.543Z,102630
2023-04-16T11:40:30.556Z,102630
2023-04-16T11:45:30.550Z,102630
2023-04-16T11:50:30.592Z,102620
2023-04-16T11:55:30.567Z,102620
2023-04-16T12:00:30.562Z,102620
2023-04-16T12:05:30.580Z,102620
2023-04-16T12:10:30.587Z,102640
2023-04-16T12:15:30.573Z,102640
2023-04-16T12:20:30.607Z,102640
2023-04-16T12:25:30.581Z,102640
2023-04-16T12:30:30.718Z,102650
2023-04-16T12:35:30.583Z,102650
2023-04-16T12:40:30.628Z,102650
2023-04-16T12:45:30.599Z,102650
2023-04-16T12:50:30.630Z,102650
2023-04-16T12:55:30.605Z,102670
2023-04-16T13:00:30.601Z,102660
2023-04-16T13:05:30.605Z,102660
2023-04-16T13:10:30.608Z,102670
2023-04-16T13:15:30.652Z,102660
2023-04-16T13:20:30.643Z,102670
2023-04-16T13:25:30.619Z,102660
2023-04-16T13:30:30.621Z,102660
2023-04-16T13:35:30.636Z,102670
2023-04-16T13:40:30.634Z,102660
2023-04-16T13:45:30.631Z,102660
2023-04-16T13:50:30.654Z,102660
2023-04-16T13:55:30.634Z,102660
2023-04-16T14:00:30.656Z,102650
2023-04-16T14:05:30.676Z,102660
2023-04-16T14:10:30.643Z,102650
2023-04-16T14:15:30.641Z,102650
2023-04-16T14:20:30.674Z,102650
2023-04-16T14:25:30.644Z,102650
2023-04-16T14:30:30.663Z,102650
2023-04-16T14:35:30.669Z,102660
2023-04-16T14:40:30.666Z,102660
2023-04-16T14:45:30.701Z,102660
2023-04-16T14:50:30.687Z,102660
2023-04-16T14:55:30.665Z,102660
2023-04-16T15:00:30.680Z,102660
2023-04-16T15:05:30.681Z,102660
2023-04-16T15:10:30.678Z,102660
2023-04-16T15:15:30.683Z,102640
2023-04-16T15:20:30.707Z,102640
2023-04-16T15:25:30.696Z,102650
2023-04-16T15:30:30.686Z,102650
2023-04-16T15:35:30.700Z,102650
2023-04-16T15:40:30.700Z,102640
2023-04-16T15:45:30.702Z,102650
2023-04-16T15:50:30.728Z,102650
2023-04-16T15:55:30.720Z,102660
2023-04-16T16:00:30.718Z,102660
2023-04-16T16:05:30.714Z,102660
2023-04-16T16:10:30.729Z,102660
2023-04-16T16:15:30.724Z,102670
2023-04-16T16:20:30.759Z,102680
2023-04-16T16:25:30.747Z,102680
2023-04-16T16:30:30.739Z,102680
2023-04-16T16:35:30.749Z,102690
2023-04-16T16:40:30.735Z,102690
2023-04-16T16:45:30.986Z,102680
2023-04-16T16:50:30.775Z,102680
2023-04-16T16:55:30.742Z,102680
2023-04-16T17:00:30.750Z,102680
2023-04-16T17:05:30.754Z,102690
2023-04-16T17:10:30.768Z,102690
2023-04-16T17:15:30.757Z,102680
2023-04-16T17:20:30.793Z,102680
2023-04-16T17:25:30.775Z,102680
2023-04-16T17:30:30.773Z,102690
2023-04-16T17:35:30.769Z,102690
2023-04-16T17:40:30.778Z,102690
2023-04-16T17:45:30.781Z,102700
2023-04-16T17:50:30.825Z,102700
2023-04-16T17:55:30.781Z,102710
2023-04-16T18:00:30.787Z,102720
2023-04-16T18:05:30.795Z,102720
2023-04-16T18:10:30.795Z,102720
2023-04-16T18:15:30.828Z,102720
2023-04-16T18:20:30.833Z,102730
2023-04-16T18:25:34.996Z,102730
2023-04-16T18:30:30.819Z,102730
2023-04-16T18:35:30.817Z,102740
2023-04-16T18:40:30.804Z,102740
2023-04-16T18:45:30.844Z,102750
2023-04-16T18:50:30.844Z,102750
2023-04-16T18:55:30.818Z,102750
2023-04-16T19:00:30.866Z,102750
2023-04-16T19:05:30.822Z,102760
2023-04-16T19:10:30.831Z,102770
2023-04-16T19:15:32.643Z,102770
2023-04-16T19:20:30.868Z,102770
2023-04-16T19:25:30.844Z,102770
2023-04-16T19:30:30.843Z,102780
2023-04-16T19:35:30.991Z,102780
2023-04-16T19:40:30.854Z,102780
2023-04-16T19:45:30.921Z,102790
2023-04-16T19:50:30.898Z,102790
2023-04-16T19:55:30.857Z,102800
2023-04-16T20:00:30.866Z,102790
2023-04-16T20:05:30.858Z,102800
2023-04-16T20:10:30.865Z,102810
2023-04-16T20:15:30.864Z,102810
2023-04-16T20:20:30.879Z,102810
2023-04-16T20:25:30.880Z,102810
2023-04-16T20:35:30.902Z,102830
2023-04-16T20:40:30.881Z,102820
2023-04-16T20:45:30.885Z,102820
2023-04-16T20:50:30.921Z,102830
2023-04-16T20:55:30.884Z,102820
2023-04-16T21:00:30.904Z,102820
2023-04-16T21:05:30.897Z,102810
2023-04-16T21:20:30.941Z,102820
2023-04-16T21:30:30.909Z,102820
2023-04-16T21:35:30.917Z,102820
2023-04-16T21:40:30.933Z,102820
2023-04-16T21:45:30.929Z,102820
2023-04-16T21:50:30.942Z,102810
2023-04-16T21:55:30.924Z,102810
2023-04-16T22:00:30.952Z,102810
2023-04-16T22:05:30.944Z,102810
2023-04-16T22:10:30.952Z,102810
2023-04-16T22:15:30.942Z,102810
2023-04-16T22:20:30.972Z,102810
2023-04-16T22:25:30.951Z,102810
2023-04-16T22:30:30.961Z,102820
2023-04-16T22:45:30.964Z,102820
2023-04-16T22:50:30.993Z,102820
2023-04-16T22:55:30.977Z,102820
2023-04-16T23:00:30.962Z,102820
2023-04-16T23:05:30.983Z,102810
2023-04-16T23:10:30.967Z,102810
2023-04-16T23:15:31.015Z,102810
2023-04-16T23:20:30.999Z,102820
2023-04-16T23:25:30.968Z,102820
2023-04-16T23:30:30.986Z,102820
2023-04-16T23:35:31.001Z,102820
2023-04-16T23:40:30.984Z,102820
2023-04-16T23:45:31.040Z,102820
2023-04-16T23:50:31.025Z,102820
2023-04-16T23:55:31.011Z,102820
